createdAt,value
2018-10-01T00:00:36.626Z,1006.48
2018-10-01T00:01:17.196Z,1006.47
2018-10-01T00:01:57.772Z,1006.41
2018-10-01T00:02:38.355Z,1006.46
2018-10-01T00:03:18.981Z,1006.39
2018-10-01T00:03:59.475Z,1006.43
2018-10-01T00:04:40.028Z,1006.44
2018-10-01T00:05:20.576Z,1006.4
2018-10-01T00:06:01.135Z,1006.45
2018-10-01T00:06:41.688Z,1006.43
2018-10-01T00:07:22.252Z,1006.43
2018-10-01T00:08:02.816Z,1006.38
2018-10-01T00:08:43.365Z,1006.44
2018-10-01T00:09:23.924Z,1006.36
2018-10-01T00:10:04.478Z,1006.4
2018-10-01T00:10:45.034Z,1006.36
2018-10-01T00:11:25.595Z,1006.33
2018-10-01T00:12:06.152Z,1006.36
2018-10-01T00:12:46.712Z,1006.42
2018-10-01T00:13:27.284Z,1006.33
2018-10-01T00:14:07.842Z,1006.34
2018-10-01T00:14:48.428Z,1006.33
2018-10-01T00:15:29.019Z,1006.34
2018-10-01T00:16:09.594Z,1006.34
2018-10-01T00:16:50.146Z,1006.3
2018-10-01T00:17:30.702Z,1006.32
2018-10-01T00:18:11.254Z,1006.31
2018-10-01T00:18:51.806Z,1006.3
2018-10-01T00:19:32.357Z,1006.33
2018-10-01T00:20:12.935Z,1006.26
2018-10-01T00:20:53.499Z,1006.27
2018-10-01T00:21:34.042Z,1006.29
2018-10-01T00:22:14.602Z,1006.27
2018-10-01T00:22:55.150Z,1006.24
2018-10-01T00:23:35.872Z,1006.21
2018-10-01T00:24:16.418Z,1006.23
2018-10-01T00:24:56.986Z,1006.22
2018-10-01T00:25:37.549Z,1006.22
2018-10-01T00:26:18.107Z,1006.23
2018-10-01T00:26:58.660Z,1006.23
2018-10-01T00:27:39.225Z,1006.21
2018-10-01T00:28:19.789Z,1006.2
2018-10-01T00:29:00.358Z,1006.18
2018-10-01T00:29:40.907Z,1006.19
2018-10-01T00:30:21.466Z,1006.17
2018-10-01T00:31:02.014Z,1006.19
2018-10-01T00:31:42.570Z,1006.16
2018-10-01T00:32:23.118Z,1006.22
2018-10-01T00:33:03.670Z,1006.18
2018-10-01T00:33:44.227Z,1006.18
2018-10-01T00:34:24.786Z,1006.22
2018-10-01T00:35:05.335Z,1006.22
2018-10-01T00:35:45.901Z,1006.22
2018-10-01T00:36:26.487Z,1006.2
2018-10-01T00:37:07.044Z,1006.2
2018-10-01T00:37:47.593Z,1006.18
2018-10-01T00:38:28.164Z,1006.2
2018-10-01T00:39:08.710Z,1006.19
2018-10-01T00:39:49.278Z,1006.18
2018-10-01T00:40:29.842Z,1006.19
2018-10-01T00:41:10.398Z,1006.23
2018-10-01T00:41:50.987Z,1006.19
2018-10-01T00:42:31.592Z,1006.18
2018-10-01T00:43:12.115Z,1006.18
2018-10-01T00:43:52.674Z,1006.18
2018-10-01T00:44:33.236Z,1006.11
2018-10-01T00:45:13.799Z,1006.13
2018-10-01T00:45:54.360Z,1006.17
2018-10-01T00:46:34.931Z,1006.16
2018-10-01T00:47:15.489Z,1006.1
2018-10-01T00:47:56.049Z,1006.13
2018-10-01T00:48:36.620Z,1006.14
2018-10-01T00:49:17.185Z,1006.1
2018-10-01T00:49:57.736Z,1006.09
2018-10-01T00:50:38.309Z,1006.09
2018-10-01T00:51:18.862Z,1006.04
2018-10-01T00:51:59.421Z,1006.06
2018-10-01T00:52:39.972Z,1006.04
2018-10-01T00:53:20.515Z,1006.07
2018-10-01T00:54:01.077Z,1006.02
2018-10-01T00:54:41.627Z,1006.03
2018-10-01T00:55:22.189Z,1006.06
2018-10-01T00:56:02.742Z,1006.01
2018-10-01T00:56:43.289Z,1006.04
2018-10-01T00:57:23.849Z,1006.05
2018-10-01T00:58:04.410Z,1006.02
2018-10-01T00:58:44.973Z,1006
2018-10-01T00:59:25.530Z,1006.02
2018-10-01T01:00:06.082Z,1005.98
2018-10-01T01:00:46.637Z,1006.01
2018-10-01T01:01:27.191Z,1006
2018-10-01T01:02:07.756Z,1006.01
2018-10-01T01:02:48.337Z,1006.01
2018-10-01T01:03:28.879Z,1005.99
2018-10-01T01:04:09.423Z,1006.05
2018-10-01T01:04:49.983Z,1006.01
2018-10-01T01:05:30.533Z,1006.01
2018-10-01T01:06:11.094Z,1006.04
2018-10-01T01:06:51.648Z,1005.99
2018-10-01T01:07:32.212Z,1006.03
2018-10-01T01:08:12.792Z,1006.01
2018-10-01T01:08:53.342Z,1006.01
2018-10-01T01:09:33.907Z,1005.97
2018-10-01T01:10:14.461Z,1006.06
2018-10-01T01:10:55.025Z,1006
2018-10-01T01:11:35.606Z,1006.03
2018-10-01T01:12:16.198Z,1006.04
2018-10-01T01:12:56.783Z,1006
2018-10-01T01:13:37.351Z,1005.99
2018-10-01T01:14:17.912Z,1006
2018-10-01T01:14:58.466Z,1006.06
2018-10-01T01:15:39.036Z,1006.05
2018-10-01T01:16:19.590Z,1006.09
2018-10-01T01:17:00.140Z,1006.11
2018-10-01T01:17:40.680Z,1006.06
2018-10-01T01:18:21.243Z,1006.09
2018-10-01T01:19:01.825Z,1006.1
2018-10-01T01:19:42.382Z,1006.09
2018-10-01T01:20:22.936Z,1006.13
2018-10-01T01:21:03.502Z,1006.14
2018-10-01T01:21:44.045Z,1006.16
2018-10-01T01:22:24.618Z,1006.12
2018-10-01T01:23:05.175Z,1006.12
2018-10-01T01:23:45.721Z,1006.1
2018-10-01T01:24:26.276Z,1006.13
2018-10-01T01:25:06.824Z,1006.15
2018-10-01T01:25:47.384Z,1006.09
2018-10-01T01:26:27.942Z,1006.09
2018-10-01T01:27:08.524Z,1006.05
2018-10-01T01:27:49.078Z,1006.09
2018-10-01T01:28:29.620Z,1006.09
2018-10-01T01:29:10.193Z,1006.09
2018-10-01T01:29:50.753Z,1006.09
2018-10-01T01:30:31.311Z,1006.1
2018-10-01T01:31:11.872Z,1006.11
2018-10-01T01:31:52.424Z,1006.09
2018-10-01T01:32:32.975Z,1006.07
2018-10-01T01:33:13.542Z,1006.06
2018-10-01T01:33:54.118Z,1006.08
2018-10-01T01:34:34.672Z,1006.04
2018-10-01T01:35:15.229Z,1006.03
2018-10-01T01:35:55.791Z,1005.99
2018-10-01T01:36:36.339Z,1006
2018-10-01T01:37:16.893Z,1006
2018-10-01T01:37:57.446Z,1005.98
2018-10-01T01:38:38.016Z,1005.98
2018-10-01T01:39:18.580Z,1006
2018-10-01T01:39:59.133Z,1006.01
2018-10-01T01:40:39.694Z,1005.99
2018-10-01T01:41:20.251Z,1005.99
2018-10-01T01:42:00.806Z,1006
2018-10-01T01:42:41.363Z,1005.97
2018-10-01T01:43:21.896Z,1005.97
2018-10-01T01:44:02.453Z,1005.93
2018-10-01T01:44:43.013Z,1005.93
2018-10-01T01:45:23.561Z,1005.91
2018-10-01T01:46:04.116Z,1005.91
2018-10-01T01:46:44.694Z,1005.95
2018-10-01T01:47:25.252Z,1005.87
2018-10-01T01:48:05.823Z,1005.85
2018-10-01T01:48:46.388Z,1005.83
2018-10-01T01:49:26.935Z,1005.82
2018-10-01T01:50:07.493Z,1005.81
2018-10-01T01:52:20.258Z,1005.82
2018-10-01T01:53:00.814Z,1005.81
2018-10-01T01:53:41.368Z,1005.83
2018-10-01T01:54:21.907Z,1005.81
2018-10-01T01:55:02.456Z,1005.81
2018-10-01T01:55:43.011Z,1005.84
2018-10-01T01:56:23.569Z,1005.89
2018-10-01T01:57:04.111Z,1005.89
2018-10-01T01:57:44.670Z,1005.88
2018-10-01T01:58:25.218Z,1005.88
2018-10-01T01:59:05.790Z,1005.85
2018-10-01T01:59:46.314Z,1005.87
2018-10-01T02:00:26.879Z,1005.83
2018-10-01T02:01:07.436Z,1005.85
2018-10-01T02:01:48.009Z,1005.86
2018-10-01T02:02:28.564Z,1005.81
2018-10-01T02:03:09.115Z,1005.84
2018-10-01T02:03:49.664Z,1005.81
2018-10-01T02:04:30.224Z,1005.77
2018-10-01T02:05:10.789Z,1005.83
2018-10-01T02:05:51.342Z,1005.78
2018-10-01T02:06:31.917Z,1005.79
2018-10-01T02:07:12.469Z,1005.76
2018-10-01T02:07:53.031Z,1005.82
2018-10-01T02:08:33.595Z,1005.8
2018-10-01T02:09:14.146Z,1005.75
2018-10-01T02:09:54.715Z,1005.78
2018-10-01T02:10:35.277Z,1005.78
2018-10-01T02:11:15.844Z,1005.79
2018-10-01T02:11:56.403Z,1005.82
2018-10-01T02:12:36.973Z,1005.79
2018-10-01T02:13:17.525Z,1005.78
2018-10-01T02:13:58.076Z,1005.79
2018-10-01T02:14:38.622Z,1005.81
2018-10-01T02:15:19.181Z,1005.77
2018-10-01T02:15:59.724Z,1005.78
2018-10-01T02:16:40.286Z,1005.78
2018-10-01T02:17:20.850Z,1005.77
2018-10-01T02:18:01.406Z,1005.77
2018-10-01T02:18:41.950Z,1005.77
2018-10-01T02:19:22.497Z,1005.77
2018-10-01T02:20:03.049Z,1005.76
2018-10-01T02:20:43.603Z,1005.76
2018-10-01T02:21:24.161Z,1005.74
2018-10-01T02:22:04.717Z,1005.75
2018-10-01T02:22:45.287Z,1005.72
2018-10-01T02:23:25.831Z,1005.71
2018-10-01T02:24:06.376Z,1005.7
2018-10-01T02:24:46.932Z,1005.72
2018-10-01T02:25:27.490Z,1005.7
2018-10-01T02:26:08.034Z,1005.72
2018-10-01T02:26:48.588Z,1005.71
2018-10-01T02:27:29.135Z,1005.73
2018-10-01T02:28:09.685Z,1005.71
2018-10-01T02:30:27.555Z,1005.81
2018-10-01T02:31:08.115Z,1005.81
2018-10-01T02:31:48.680Z,1005.82
2018-10-01T02:32:29.238Z,1005.8
2018-10-01T02:33:09.787Z,1005.81
2018-10-01T02:33:50.354Z,1005.78
2018-10-01T02:34:30.888Z,1005.79
2018-10-01T02:35:11.460Z,1005.84
2018-10-01T02:35:52.008Z,1005.79
2018-10-01T02:36:32.556Z,1005.82
2018-10-01T02:37:13.118Z,1005.84
2018-10-01T02:37:53.670Z,1005.85
2018-10-01T02:38:34.237Z,1005.84
2018-10-01T02:39:14.772Z,1005.82
2018-10-01T02:39:55.355Z,1005.82
2018-10-01T02:40:35.907Z,1005.87
2018-10-01T02:41:16.461Z,1005.87
2018-10-01T02:41:57.010Z,1005.9
2018-10-01T02:42:37.581Z,1005.89
2018-10-01T02:43:18.137Z,1005.92
2018-10-01T02:43:58.720Z,1005.93
2018-10-01T02:44:39.248Z,1005.94
2018-10-01T02:45:19.816Z,1005.91
2018-10-01T02:46:00.440Z,1005.92
2018-10-01T02:46:40.979Z,1005.93
2018-10-01T02:47:21.543Z,1005.94
2018-10-01T02:48:02.124Z,1005.88
2018-10-01T02:48:42.681Z,1005.92
2018-10-01T02:49:23.230Z,1005.96
2018-10-01T02:50:03.787Z,1005.92
2018-10-01T02:50:44.338Z,1005.91
2018-10-01T02:51:24.895Z,1005.91
2018-10-01T02:52:05.464Z,1005.88
2018-10-01T02:52:46.017Z,1005.88
2018-10-01T02:53:26.576Z,1005.88
2018-10-01T02:54:07.138Z,1005.88
2018-10-01T02:54:47.689Z,1005.83
2018-10-01T02:55:28.252Z,1005.86
2018-10-01T02:56:08.810Z,1005.9
2018-10-01T02:56:49.377Z,1005.83
2018-10-01T02:57:29.923Z,1005.85
2018-10-01T02:58:10.476Z,1005.82
2018-10-01T02:58:51.040Z,1005.81
2018-10-01T02:59:31.609Z,1005.91
2018-10-01T03:00:12.187Z,1005.79
2018-10-01T03:00:52.753Z,1005.82
2018-10-01T03:01:33.304Z,1005.8
2018-10-01T03:02:13.869Z,1005.8
2018-10-01T03:02:54.438Z,1005.8
2018-10-01T03:03:34.984Z,1005.76
2018-10-01T03:04:15.549Z,1005.75
2018-10-01T03:04:56.107Z,1005.78
2018-10-01T03:05:36.662Z,1005.75
2018-10-01T03:06:17.211Z,1005.67
2018-10-01T03:06:57.774Z,1005.65
2018-10-01T03:07:38.325Z,1005.65
2018-10-01T03:08:18.891Z,1005.65
2018-10-01T03:08:59.449Z,1005.64
2018-10-01T03:09:40.009Z,1005.62
2018-10-01T03:10:20.566Z,1005.6
2018-10-01T03:11:01.123Z,1005.6
2018-10-01T03:11:41.687Z,1005.64
2018-10-01T03:12:22.281Z,1005.53
2018-10-01T03:13:02.787Z,1005.57
2018-10-01T03:13:43.350Z,1005.55
2018-10-01T03:14:23.906Z,1005.55
2018-10-01T03:15:04.476Z,1005.55
2018-10-01T03:15:45.000Z,1005.52
2018-10-01T03:16:25.557Z,1005.48
2018-10-01T03:17:06.173Z,1005.5
2018-10-01T03:17:46.732Z,1005.46
2018-10-01T03:18:27.277Z,1005.43
2018-10-01T03:19:07.901Z,1005.46
2018-10-01T03:19:48.432Z,1005.44
2018-10-01T03:20:28.972Z,1005.42
2018-10-01T03:21:09.542Z,1005.4
2018-10-01T03:21:50.086Z,1005.44
2018-10-01T03:22:30.653Z,1005.41
2018-10-01T03:23:11.216Z,1005.44
2018-10-01T03:23:51.778Z,1005.43
2018-10-01T03:24:32.342Z,1005.44
2018-10-01T03:25:12.891Z,1005.49
2018-10-01T03:25:53.452Z,1005.45
2018-10-01T03:26:34.017Z,1005.43
2018-10-01T03:27:14.576Z,1005.42
2018-10-01T03:27:55.154Z,1005.45
2018-10-01T03:28:35.708Z,1005.46
2018-10-01T03:29:16.255Z,1005.42
2018-10-01T03:29:56.811Z,1005.41
2018-10-01T03:30:37.384Z,1005.45
2018-10-01T03:31:17.939Z,1005.43
2018-10-01T03:31:58.510Z,1005.45
2018-10-01T03:32:39.056Z,1005.47
2018-10-01T03:33:19.612Z,1005.45
2018-10-01T03:34:00.169Z,1005.46
2018-10-01T03:34:40.732Z,1005.47
2018-10-01T03:35:21.278Z,1005.45
2018-10-01T03:36:01.830Z,1005.47
2018-10-01T03:36:42.377Z,1005.44
2018-10-01T03:37:22.946Z,1005.43
2018-10-01T03:38:03.527Z,1005.43
2018-10-01T03:38:44.095Z,1005.45
2018-10-01T03:39:24.679Z,1005.5
2018-10-01T03:40:05.346Z,1005.46
2018-10-01T03:40:45.786Z,1005.5
2018-10-01T03:41:26.335Z,1005.54
2018-10-01T03:42:06.892Z,1005.53
2018-10-01T03:42:47.511Z,1005.54
2018-10-01T03:43:28.022Z,1005.54
2018-10-01T03:44:08.580Z,1005.54
2018-10-01T03:44:49.134Z,1005.51
2018-10-01T03:45:29.693Z,1005.52
2018-10-01T03:46:10.241Z,1005.51
2018-10-01T03:46:50.797Z,1005.51
2018-10-01T03:47:31.350Z,1005.5
2018-10-01T03:48:11.911Z,1005.52
2018-10-01T03:48:52.471Z,1005.47
2018-10-01T03:49:33.022Z,1005.5
2018-10-01T03:50:13.584Z,1005.52
2018-10-01T03:50:54.140Z,1005.52
2018-10-01T03:51:34.725Z,1005.54
2018-10-01T03:52:15.257Z,1005.54
2018-10-01T03:52:55.801Z,1005.5
2018-10-01T03:53:36.357Z,1005.48
2018-10-01T03:54:16.928Z,1005.5
2018-10-01T03:54:57.487Z,1005.54
2018-10-01T03:55:38.117Z,1005.51
2018-10-01T03:56:18.680Z,1005.53
2018-10-01T03:56:59.228Z,1005.53
2018-10-01T03:57:39.778Z,1005.56
2018-10-01T03:58:20.351Z,1005.52
2018-10-01T04:00:52.233Z,1005.59
2018-10-01T04:03:19.951Z,1005.52
2018-10-01T04:04:00.499Z,1005.51
2018-10-01T04:04:41.090Z,1005.5
2018-10-01T04:05:21.635Z,1005.46
2018-10-01T04:06:02.191Z,1005.46
2018-10-01T04:06:42.750Z,1005.46
2018-10-01T04:07:23.321Z,1005.51
2018-10-01T04:08:03.874Z,1005.5
2018-10-01T04:08:44.488Z,1005.51
2018-10-01T04:09:24.986Z,1005.5
2018-10-01T04:10:05.563Z,1005.44
2018-10-01T04:10:46.123Z,1005.46
2018-10-01T04:11:26.684Z,1005.46
2018-10-01T04:12:07.241Z,1005.44
2018-10-01T04:12:47.781Z,1005.44
2018-10-01T04:13:28.375Z,1005.47
2018-10-01T04:14:08.936Z,1005.43
2018-10-01T04:14:49.485Z,1005.43
2018-10-01T04:15:30.036Z,1005.43
2018-10-01T04:16:10.649Z,1005.41
2018-10-01T04:16:51.206Z,1005.42
2018-10-01T04:17:31.753Z,1005.45
2018-10-01T04:18:12.310Z,1005.44
2018-10-01T04:18:52.899Z,1005.41
2018-10-01T04:19:33.485Z,1005.41
2018-10-01T04:20:14.026Z,1005.38
2018-10-01T04:20:54.575Z,1005.38
2018-10-01T04:21:35.139Z,1005.38
2018-10-01T04:22:15.708Z,1005.41
2018-10-01T04:22:56.274Z,1005.38
2018-10-01T04:23:36.825Z,1005.38
2018-10-01T04:24:17.410Z,1005.4
2018-10-01T04:24:57.979Z,1005.36
2018-10-01T04:25:38.541Z,1005.41
2018-10-01T04:26:19.097Z,1005.36
2018-10-01T04:26:59.659Z,1005.38
2018-10-01T04:27:40.200Z,1005.4
2018-10-01T04:28:20.833Z,1005.38
2018-10-01T04:29:01.323Z,1005.38
2018-10-01T04:29:41.892Z,1005.4
2018-10-01T04:30:22.444Z,1005.38
2018-10-01T04:31:03.029Z,1005.38
2018-10-01T04:31:43.585Z,1005.36
2018-10-01T04:32:24.132Z,1005.37
2018-10-01T04:33:04.692Z,1005.33
2018-10-01T04:33:45.251Z,1005.33
2018-10-01T04:34:25.802Z,1005.34
2018-10-01T04:35:06.369Z,1005.39
2018-10-01T04:35:46.952Z,1005.38
2018-10-01T04:36:27.505Z,1005.38
2018-10-01T04:37:08.078Z,1005.37
2018-10-01T04:37:48.639Z,1005.39
2018-10-01T04:38:29.205Z,1005.39
2018-10-01T04:39:09.761Z,1005.44
2018-10-01T04:39:50.321Z,1005.44
2018-10-01T04:40:30.873Z,1005.42
2018-10-01T04:41:11.429Z,1005.37
2018-10-01T04:41:51.974Z,1005.42
2018-10-01T04:42:32.544Z,1005.42
2018-10-01T04:43:13.114Z,1005.42
2018-10-01T04:43:53.672Z,1005.45
2018-10-01T04:44:34.222Z,1005.43
2018-10-01T04:45:14.799Z,1005.45
2018-10-01T04:45:55.373Z,1005.44
2018-10-01T04:46:35.962Z,1005.4
2018-10-01T04:47:16.494Z,1005.42
2018-10-01T04:47:57.047Z,1005.42
2018-10-01T04:48:37.604Z,1005.44
2018-10-01T04:49:18.194Z,1005.41
2018-10-01T04:49:58.750Z,1005.4
2018-10-01T04:50:39.307Z,1005.41
2018-10-01T04:51:19.877Z,1005.42
2018-10-01T04:52:00.428Z,1005.42
2018-10-01T04:52:41.034Z,1005.41
2018-10-01T04:53:21.606Z,1005.37
2018-10-01T04:54:02.181Z,1005.44
2018-10-01T04:54:42.747Z,1005.4
2018-10-01T04:55:23.301Z,1005.4
2018-10-01T04:56:03.875Z,1005.4
2018-10-01T04:56:44.425Z,1005.43
2018-10-01T04:57:24.982Z,1005.43
2018-10-01T04:58:05.627Z,1005.42
2018-10-01T04:58:46.162Z,1005.44
2018-10-01T04:59:26.758Z,1005.42
2018-10-01T05:00:07.314Z,1005.39
2018-10-01T05:00:47.877Z,1005.42
2018-10-01T05:01:28.428Z,1005.44
2018-10-01T05:02:08.991Z,1005.4
2018-10-01T05:02:49.544Z,1005.42
2018-10-01T05:03:30.150Z,1005.38
2018-10-01T05:04:10.661Z,1005.42
2018-10-01T05:04:51.244Z,1005.45
2018-10-01T05:05:31.799Z,1005.43
2018-10-01T05:06:12.435Z,1005.45
2018-10-01T05:06:52.919Z,1005.46
2018-10-01T05:07:33.480Z,1005.51
2018-10-01T05:08:14.032Z,1005.48
2018-10-01T05:08:55.933Z,1005.5
2018-10-01T05:09:35.608Z,1005.5
2018-10-01T05:10:16.176Z,1005.52
2018-10-01T05:10:56.744Z,1005.54
2018-10-01T05:11:37.319Z,1005.56
2018-10-01T05:12:17.875Z,1005.55
2018-10-01T05:12:58.437Z,1005.55
2018-10-01T05:13:38.982Z,1005.59
2018-10-01T05:14:19.539Z,1005.61
2018-10-01T05:15:00.099Z,1005.53
2018-10-01T05:15:40.670Z,1005.58
2018-10-01T05:16:21.232Z,1005.59
2018-10-01T05:17:01.791Z,1005.58
2018-10-01T05:17:42.347Z,1005.6
2018-10-01T05:18:22.925Z,1005.6
2018-10-01T05:19:03.478Z,1005.57
2018-10-01T05:19:44.043Z,1005.64
2018-10-01T05:20:24.597Z,1005.62
2018-10-01T05:21:05.156Z,1005.6
2018-10-01T05:21:45.711Z,1005.6
2018-10-01T05:22:26.258Z,1005.59
2018-10-01T05:23:06.816Z,1005.53
2018-10-01T05:23:47.368Z,1005.58
2018-10-01T05:24:27.931Z,1005.57
2018-10-01T05:25:08.493Z,1005.55
2018-10-01T05:25:49.084Z,1005.53
2018-10-01T05:26:29.619Z,1005.59
2018-10-01T05:27:10.215Z,1005.56
2018-10-01T05:27:50.741Z,1005.59
2018-10-01T05:28:31.301Z,1005.58
2018-10-01T05:29:11.941Z,1005.62
2018-10-01T05:29:52.516Z,1005.61
2018-10-01T05:30:33.073Z,1005.58
2018-10-01T05:31:13.632Z,1005.59
2018-10-01T05:31:54.190Z,1005.63
2018-10-01T05:32:34.748Z,1005.61
2018-10-01T05:33:15.333Z,1005.59
2018-10-01T05:37:05.410Z,1005.54
2018-10-01T05:37:45.980Z,1005.55
2018-10-01T05:38:26.531Z,1005.56
2018-10-01T05:39:07.098Z,1005.52
2018-10-01T05:39:47.664Z,1005.51
2018-10-01T05:40:28.223Z,1005.51
2018-10-01T05:41:08.784Z,1005.52
2018-10-01T05:41:49.343Z,1005.51
2018-10-01T05:42:29.905Z,1005.54
2018-10-01T05:43:10.492Z,1005.52
2018-10-01T05:43:51.041Z,1005.58
2018-10-01T05:44:31.580Z,1005.57
2018-10-01T05:45:12.145Z,1005.6
2018-10-01T05:45:52.715Z,1005.56
2018-10-01T05:46:33.281Z,1005.6
2018-10-01T05:47:13.825Z,1005.6
2018-10-01T05:47:54.373Z,1005.63
2018-10-01T05:48:34.920Z,1005.61
2018-10-01T05:49:15.541Z,1005.61
2018-10-01T05:49:56.036Z,1005.64
2018-10-01T05:50:36.575Z,1005.63
2018-10-01T05:51:17.113Z,1005.61
2018-10-01T05:51:57.668Z,1005.62
2018-10-01T05:52:38.264Z,1005.59
2018-10-01T05:53:18.824Z,1005.61
2018-10-01T05:53:59.409Z,1005.63
2018-10-01T05:54:40.046Z,1005.68
2018-10-01T05:55:20.819Z,1005.63
2018-10-01T05:56:01.413Z,1005.69
2018-10-01T05:56:41.973Z,1005.65
2018-10-01T05:57:22.539Z,1005.66
2018-10-01T05:58:03.133Z,1005.62
2018-10-01T05:58:43.693Z,1005.66
2018-10-01T05:59:24.224Z,1005.67
2018-10-01T06:00:04.780Z,1005.67
2018-10-01T06:00:45.381Z,1005.71
2018-10-01T06:01:25.950Z,1005.73
2018-10-01T06:02:06.533Z,1005.7
2018-10-01T06:02:47.107Z,1005.71
2018-10-01T06:03:27.729Z,1005.65
2018-10-01T06:04:08.323Z,1005.67
2018-10-01T06:04:48.953Z,1005.7
2018-10-01T06:05:29.436Z,1005.67
2018-10-01T06:06:09.991Z,1005.68
2018-10-01T06:06:50.587Z,1005.67
2018-10-01T06:07:31.143Z,1005.66
2018-10-01T06:08:11.704Z,1005.66
2018-10-01T06:08:52.278Z,1005.67
2018-10-01T06:09:32.842Z,1005.64
2018-10-01T06:10:13.398Z,1005.7
2018-10-01T06:10:53.935Z,1005.7
2018-10-01T06:11:34.497Z,1005.78
2018-10-01T06:12:15.049Z,1005.81
2018-10-01T06:12:55.710Z,1005.8
2018-10-01T06:13:36.282Z,1005.78
2018-10-01T06:14:16.857Z,1005.77
2018-10-01T06:14:57.441Z,1005.81
2018-10-01T06:15:38.019Z,1005.86
2018-10-01T06:16:18.572Z,1005.91
2018-10-01T06:16:59.172Z,1005.92
2018-10-01T06:17:39.716Z,1005.94
2018-10-01T06:18:20.286Z,1005.94
2018-10-01T06:19:00.889Z,1005.93
2018-10-01T06:19:41.452Z,1005.95
2018-10-01T06:20:22.012Z,1005.93
2018-10-01T06:21:02.568Z,1005.91
2018-10-01T06:21:43.173Z,1005.94
2018-10-01T06:22:23.723Z,1005.9
2018-10-01T06:23:04.292Z,1005.91
2018-10-01T06:23:44.844Z,1005.91
2018-10-01T06:24:25.445Z,1005.85
2018-10-01T06:25:05.988Z,1005.87
2018-10-01T06:25:46.538Z,1005.9
2018-10-01T06:26:27.128Z,1005.89
2018-10-01T06:27:07.704Z,1005.9
2018-10-01T06:27:48.379Z,1005.89
2018-10-01T06:28:28.922Z,1005.89
2018-10-01T06:29:09.481Z,1005.91
2018-10-01T06:29:50.041Z,1005.88
2018-10-01T06:30:30.614Z,1005.91
2018-10-01T06:31:11.165Z,1005.9
2018-10-01T06:31:51.732Z,1005.92
2018-10-01T06:32:32.295Z,1005.9
2018-10-01T06:33:12.866Z,1005.92
2018-10-01T06:33:53.416Z,1005.93
2018-10-01T06:34:33.987Z,1005.9
2018-10-01T06:35:14.548Z,1005.94
2018-10-01T06:35:55.105Z,1005.91
2018-10-01T06:36:35.652Z,1005.93
2018-10-01T06:37:16.229Z,1005.96
2018-10-01T06:37:56.795Z,1005.96
2018-10-01T06:38:37.361Z,1005.89
2018-10-01T06:39:17.905Z,1005.91
2018-10-01T06:39:58.459Z,1005.93
2018-10-01T06:40:39.036Z,1005.94
2018-10-01T06:41:19.586Z,1005.96
2018-10-01T06:42:00.232Z,1005.92
2018-10-01T06:42:40.688Z,1005.97
2018-10-01T06:43:21.239Z,1005.91
2018-10-01T06:44:01.792Z,1005.93
2018-10-01T06:44:42.353Z,1005.85
2018-10-01T06:45:22.959Z,1005.91
2018-10-01T06:46:03.526Z,1005.92
2018-10-01T06:46:44.077Z,1005.92
2018-10-01T06:47:24.647Z,1005.96
2018-10-01T06:48:05.253Z,1005.93
2018-10-01T06:48:45.828Z,1005.94
2018-10-01T06:49:26.468Z,1006.01
2018-10-01T06:50:07.053Z,1006.02
2018-10-01T06:50:47.917Z,1006.02
2018-10-01T06:51:28.420Z,1005.98
2018-10-01T06:52:08.978Z,1006.02
2018-10-01T06:52:49.579Z,1005.97
2018-10-01T06:53:30.128Z,1006
2018-10-01T06:54:10.696Z,1006.05
2018-10-01T06:54:51.242Z,1006.05
2018-10-01T06:55:31.804Z,1006.06
2018-10-01T06:56:12.361Z,1006.08
2018-10-01T06:56:52.924Z,1006.08
2018-10-01T06:57:33.477Z,1006.06
2018-10-01T06:58:14.095Z,1006
2018-10-01T06:58:54.963Z,1006.02
2018-10-01T06:59:35.522Z,1005.99
2018-10-01T07:00:16.085Z,1006.04
2018-10-01T07:00:56.685Z,1006.02
2018-10-01T07:01:37.234Z,1005.98
2018-10-01T07:02:17.792Z,1005.98
2018-10-01T07:02:58.368Z,1005.95
2018-10-01T07:03:38.989Z,1005.98
2018-10-01T07:04:19.552Z,1005.97
2018-10-01T07:05:00.112Z,1005.95
2018-10-01T07:05:40.758Z,1005.96
2018-10-01T07:06:21.327Z,1005.98
2018-10-01T07:07:01.906Z,1005.97
2018-10-01T07:07:42.496Z,1006
2018-10-01T07:08:23.060Z,1005.99
2018-10-01T07:09:03.628Z,1006.01
2018-10-01T07:09:44.222Z,1006.1
2018-10-01T07:10:24.824Z,1006
2018-10-01T07:11:05.448Z,1006.07
2018-10-01T07:11:46.042Z,1006.07
2018-10-01T07:12:26.508Z,1006.04
2018-10-01T07:13:07.068Z,1006.04
2018-10-01T07:13:47.773Z,1006.03
2018-10-01T07:14:28.323Z,1006.07
2018-10-01T07:15:08.885Z,1006.08
2018-10-01T07:15:49.460Z,1006.08
2018-10-01T07:16:30.049Z,1006.11
2018-10-01T07:17:10.710Z,1006.21
2018-10-01T07:17:51.131Z,1006.4
2018-10-01T07:18:31.687Z,1006.39
2018-10-01T07:19:12.264Z,1006.45
2018-10-01T07:19:52.819Z,1006.57
2018-10-01T07:20:33.418Z,1006.56
2018-10-01T07:21:14.021Z,1006.6
2018-10-01T07:21:54.592Z,1006.71
2018-10-01T07:22:35.223Z,1006.78
2018-10-01T07:23:16.149Z,1006.69
2018-10-01T07:23:56.310Z,1006.73
2018-10-01T07:24:36.928Z,1006.77
2018-10-01T07:25:17.523Z,1006.81
2018-10-01T07:25:58.088Z,1006.78
2018-10-01T07:26:38.641Z,1006.75
2018-10-01T07:27:19.211Z,1006.61
2018-10-01T07:27:59.776Z,1006.42
2018-10-01T07:28:40.328Z,1006.4
2018-10-01T07:29:20.890Z,1006.39
2018-10-01T07:30:01.511Z,1006.32
2018-10-01T07:30:42.080Z,1006.37
2018-10-01T07:31:22.640Z,1006.44
2018-10-01T07:32:03.215Z,1006.4
2018-10-01T07:32:43.769Z,1006.46
2018-10-01T07:33:24.356Z,1006.37
2018-10-01T07:34:04.939Z,1006.35
2018-10-01T07:34:45.502Z,1006.28
2018-10-01T07:35:26.066Z,1006.31
2018-10-01T07:36:06.654Z,1006.25
2018-10-01T07:36:47.192Z,1006.21
2018-10-01T07:37:27.764Z,1006.18
2018-10-01T07:38:08.321Z,1006.19
2018-10-01T07:38:48.925Z,1006.17
2018-10-01T07:39:29.451Z,1006.19
2018-10-01T07:40:10.028Z,1006.21
2018-10-01T07:40:50.590Z,1006.25
2018-10-01T07:41:31.183Z,1006.16
2018-10-01T07:42:11.701Z,1006.16
2018-10-01T07:42:52.258Z,1006.23
2018-10-01T07:43:32.818Z,1006.23
2018-10-01T07:44:13.372Z,1006.24
2018-10-01T07:44:54.007Z,1006.23
2018-10-01T07:45:34.927Z,1006.33
2018-10-01T07:46:17.169Z,1006.34
2018-10-01T07:46:57.203Z,1006.32
2018-10-01T07:47:37.758Z,1006.39
2018-10-01T07:48:18.327Z,1006.42
2018-10-01T07:48:58.881Z,1006.41
2018-10-01T07:49:39.500Z,1006.45
2018-10-01T07:50:20.019Z,1006.43
2018-10-01T07:51:00.823Z,1006.38
2018-10-01T07:51:42.636Z,1006.45
2018-10-01T07:52:24.902Z,1006.37
2018-10-01T07:53:05.462Z,1006.37
2018-10-01T07:53:47.641Z,1006.32
2018-10-01T07:54:29.942Z,1006.31
2018-10-01T07:55:10.526Z,1006.32
2018-10-01T07:55:51.126Z,1006.31
2018-10-01T07:56:33.064Z,1006.31
2018-10-01T07:57:13.851Z,1006.28
2018-10-01T07:57:54.275Z,1006.28
2018-10-01T07:58:35.178Z,1006.26
2018-10-01T07:59:15.727Z,1006.27
2018-10-01T07:59:56.414Z,1006.25
2018-10-01T08:00:36.914Z,1006.27
2018-10-01T08:01:17.503Z,1006.27
2018-10-01T08:01:58.072Z,1006.28
2018-10-01T08:02:38.698Z,1006.26
2018-10-01T08:03:19.180Z,1006.28
2018-10-01T08:03:59.722Z,1006.26
2018-10-01T08:04:40.291Z,1006.29
2018-10-01T08:05:20.858Z,1006.32
2018-10-01T08:06:01.419Z,1006.32
2018-10-01T08:06:41.977Z,1006.3
2018-10-01T08:07:22.542Z,1006.34
2018-10-01T08:08:03.172Z,1006.34
2018-10-01T08:08:43.702Z,1006.37
2018-10-01T08:09:24.293Z,1006.34
2018-10-01T08:10:04.788Z,1006.4
2018-10-01T08:10:45.333Z,1006.4
2018-10-01T08:11:25.921Z,1006.39
2018-10-01T08:12:06.474Z,1006.46
2018-10-01T08:12:47.032Z,1006.52
2018-10-01T08:13:27.600Z,1006.58
2018-10-01T08:14:08.257Z,1006.61
2018-10-01T08:14:48.747Z,1006.6
2018-10-01T08:15:29.305Z,1006.52
2018-10-01T08:16:09.863Z,1006.56
2018-10-01T08:16:50.422Z,1006.54
2018-10-01T08:17:30.982Z,1006.58
2018-10-01T08:18:11.541Z,1006.61
2018-10-01T08:18:52.099Z,1006.64
2018-10-01T08:19:32.662Z,1006.58
2018-10-01T08:20:13.258Z,1006.65
2018-10-01T08:20:53.780Z,1006.6
2018-10-01T08:21:34.355Z,1006.58
2018-10-01T08:22:14.941Z,1006.62
2018-10-01T08:22:55.525Z,1006.64
2018-10-01T08:23:36.142Z,1006.65